Atlantic Mine, Michigan
Current Conditions -  °F | °C
As of 3:53 AM on Friday 31 Oct 2014 (Local Time) from KCMX Reporting Station
Light Snow Light Snow  
Wind Chill: 18°   Ceiling: 3400
Heat Index: 30°   Visibility: 9mi
Dew Point: 22°   Wind: 20mph
Humidity: 72%   Direction: 20°NNE
Pressure: 30.23"   Gusts: 31mph
Location:  47.1°N, 88.63°W
Report Text: KCMX 310753Z AUTO 02017G27KT 9SM -SN FEW026 BKN034 OVC046 M01/M06 A3023 RMK AO2 PK WND 01027/0747 SNB15 SLP251 P0001 T10111056
Loading
Personal Weather Stations






























Interactive Weather Map New forecast layout! Learn more

10-Day Weather Forecast

Advertisements
Track Severe Weather on mobile